sensor_id;sensor_type;location;lat;lon;timestamp;P1;P2;P0
44933;PMS3003;30667;43.614;1.442;2023-02-17T00:01:12;57.25;46.75;30.75
44933;PMS3003;30667;43.614;1.442;2023-02-17T00:03:58;59.00;48.25;31.00
44933;PMS3003;30667;43.614;1.442;2023-02-17T00:06:25;55.50;47.00;30.75
44933;PMS3003;30667;43.614;1.442;2023-02-17T00:08:51;57.00;47.25;32.00
44933;PMS3003;30667;43.614;1.442;2023-02-17T00:11:17;49.67;45.00;31.00
44933;PMS3003;30667;43.614;1.442;2023-02-17T00:13:43;51.00;43.67;29.00
44933;PMS3003;30667;43.614;1.442;2023-02-17T00:16:15;56.50;44.75;30.25
44933;PMS3003;30667;43.614;1.442;2023-02-17T00:18:42;60.00;47.25;30.50
44933;PMS3003;30667;43.614;1.442;2023-02-17T00:21:15;52.75;44.75;30.25
44933;PMS3003;30667;43.614;1.442;2023-02-17T00:23:43;57.25;47.00;30.75
44933;PMS3003;30667;43.614;1.442;2023-02-17T00:26:09;56.25;48.00;31.75
44933;PMS3003;30667;43.614;1.442;2023-02-17T00:28:36;55.50;44.75;30.50
44933;PMS3003;30667;43.614;1.442;2023-02-17T00:31:08;54.33;46.33;31.33
44933;PMS3003;30667;43.614;1.442;2023-02-17T00:33:37;54.00;44.00;29.50
44933;PMS3003;30667;43.614;1.442;2023-02-17T00:36:04;50.33;42.33;28.00
44933;PMS3003;30667;43.614;1.442;2023-02-17T00:38:30;50.75;44.00;29.25
44933;PMS3003;30667;43.614;1.442;2023-02-17T00:40:56;56.00;44.00;28.00
44933;PMS3003;30667;43.614;1.442;2023-02-17T00:43:21;47.50;43.00;28.25
44933;PMS3003;30667;43.614;1.442;2023-02-17T00:45:47;52.00;44.00;28.25
44933;PMS3003;30667;43.614;1.442;2023-02-17T00:48:12;52.33;43.33;29.67
44933;PMS3003;30667;43.614;1.442;2023-02-17T00:50:38;49.50;43.00;28.50
44933;PMS3003;30667;43.614;1.442;2023-02-17T00:53:03;52.67;44.00;29.00
44933;PMS3003;30667;43.614;1.442;2023-02-17T00:55:29;45.25;42.25;27.25
44933;PMS3003;30667;43.614;1.442;2023-02-17T00:57:54;43.75;36.75;26.75
44933;PMS3003;30667;43.614;1.442;2023-02-17T01:00:20;46.00;41.00;27.00
44933;PMS3003;30667;43.614;1.442;2023-02-17T01:02:45;45.25;43.25;27.25
44933;PMS3003;30667;43.614;1.442;2023-02-17T01:05:10;41.50;40.25;27.25
44933;PMS3003;30667;43.614;1.442;2023-02-17T01:07:36;45.67;41.67;27.00
44933;PMS3003;30667;43.614;1.442;2023-02-17T01:10:03;47.25;41.50;27.50
44933;PMS3003;30667;43.614;1.442;2023-02-17T01:12:29;49.40;41.60;27.00
44933;PMS3003;30667;43.614;1.442;2023-02-17T01:14:54;52.33;44.67;29.67
44933;PMS3003;30667;43.614;1.442;2023-02-17T01:17:20;57.33;44.33;30.33
44933;PMS3003;30667;43.614;1.442;2023-02-17T01:19:45;54.25;43.75;28.50
44933;PMS3003;30667;43.614;1.442;2023-02-17T01:22:11;50.67;41.00;27.67
44933;PMS3003;30667;43.614;1.442;2023-02-17T01:24:37;52.00;44.00;29.67
44933;PMS3003;30667;43.614;1.442;2023-02-17T01:27:03;56.25;46.00;30.25
44933;PMS3003;30667;43.614;1.442;2023-02-17T01:29:29;51.33;44.33;29.00
44933;PMS3003;30667;43.614;1.442;2023-02-17T01:31:54;48.67;43.00;29.33
44933;PMS3003;30667;43.614;1.442;2023-02-17T01:34:20;51.67;44.33;27.00
44933;PMS3003;30667;43.614;1.442;2023-02-17T01:36:45;54.00;44.00;30.00
44933;PMS3003;30667;43.614;1.442;2023-02-17T01:39:12;51.00;43.67;30.00
44933;PMS3003;30667;43.614;1.442;2023-02-17T01:41:38;50.00;43.50;29.50
44933;PMS3003;30667;43.614;1.442;2023-02-17T01:46:44;49.20;44.60;28.00
44933;PMS3003;30667;43.614;1.442;2023-02-17T01:49:53;46.80;41.80;27.80
44933;PMS3003;30667;43.614;1.442;2023-02-17T01:52:21;47.80;42.40;28.00
44933;PMS3003;30667;43.614;1.442;2023-02-17T01:54:54;54.20;45.60;29.00
44933;PMS3003;30667;43.614;1.442;2023-02-17T01:57:26;46.60;41.20;28.60
44933;PMS3003;30667;43.614;1.442;2023-02-17T01:59:56;45.75;41.75;27.75
44933;PMS3003;30667;43.614;1.442;2023-02-17T02:02:22;44.60;41.60;28.20
44933;PMS3003;30667;43.614;1.442;2023-02-17T02:04:48;45.75;39.25;25.25
44933;PMS3003;30667;43.614;1.442;2023-02-17T02:07:21;46.20;40.80;27.60
44933;PMS3003;30667;43.614;1.442;2023-02-17T02:09:51;43.20;40.00;27.40
44933;PMS3003;30667;43.614;1.442;2023-02-17T02:12:21;52.75;42.00;27.75
44933;PMS3003;30667;43.614;1.442;2023-02-17T02:14:52;53.00;43.80;28.40
44933;PMS3003;30667;43.614;1.442;2023-02-17T02:22:42;48.00;40.00;24.80
44933;PMS3003;30667;43.614;1.442;2023-02-17T02:31:05;47.60;42.80;26.80
44933;PMS3003;30667;43.614;1.442;2023-02-17T02:34:01;47.00;42.00;28.00
44933;PMS3003;30667;43.614;1.442;2023-02-17T02:36:37;45.80;41.80;27.60
44933;PMS3003;30667;43.614;1.442;2023-02-17T02:39:13;44.80;42.00;27.80
44933;PMS3003;30667;43.614;1.442;2023-02-17T02:41:45;47.80;43.00;27.80
44933;PMS3003;30667;43.614;1.442;2023-02-17T02:44:18;44.20;41.60;26.80
44933;PMS3003;30667;43.614;1.442;2023-02-17T02:46:54;50.00;43.80;27.80
44933;PMS3003;30667;43.614;1.442;2023-02-17T02:49:21;46.00;41.40;27.40
44933;PMS3003;30667;43.614;1.442;2023-02-17T02:51:48;42.75;38.25;26.00
44933;PMS3003;30667;43.614;1.442;2023-02-17T02:54:33;42.60;41.00;27.80
44933;PMS3003;30667;43.614;1.442;2023-02-17T02:57:18;48.00;42.80;28.00
44933;PMS3003;30667;43.614;1.442;2023-02-17T03:00:16;48.80;38.60;26.40
44933;PMS3003;30667;43.614;1.442;2023-02-17T03:02:58;45.20;41.40;27.20
44933;PMS3003;30667;43.614;1.442;2023-02-17T03:08:19;49.60;42.80;29.00
44933;PMS3003;30667;43.614;1.442;2023-02-17T03:10:55;49.40;43.00;27.60
44933;PMS3003;30667;43.614;1.442;2023-02-17T03:13:21;43.75;41.25;28.00
44933;PMS3003;30667;43.614;1.442;2023-02-17T03:15:46;45.00;42.00;27.50
44933;PMS3003;30667;43.614;1.442;2023-02-17T03:18:13;45.20;42.40;28.40
44933;PMS3003;30667;43.614;1.442;2023-02-17T03:20:40;46.25;42.00;27.00
44933;PMS3003;30667;43.614;1.442;2023-02-17T03:23:12;44.20;40.40;26.60
44933;PMS3003;30667;43.614;1.442;2023-02-17T03:25:37;42.75;37.25;25.50
44933;PMS3003;30667;43.614;1.442;2023-02-17T03:28:03;46.00;42.00;26.75
44933;PMS3003;30667;43.614;1.442;2023-02-17T03:30:28;44.75;42.25;28.00
44933;PMS3003;30667;43.614;1.442;2023-02-17T03:32:54;50.00;45.33;28.00
44933;PMS3003;30667;43.614;1.442;2023-02-17T03:35:19;49.33;44.00;29.33
44933;PMS3003;30667;43.614;1.442;2023-02-17T03:37:44;51.25;41.50;28.00
44933;PMS3003;30667;43.614;1.442;2023-02-17T03:40:10;50.75;43.00;28.00
44933;PMS3003;30667;43.614;1.442;2023-02-17T03:42:36;47.40;43.00;28.00
44933;PMS3003;30667;43.614;1.442;2023-02-17T03:45:01;52.75;43.75;28.00
44933;PMS3003;30667;43.614;1.442;2023-02-17T03:47:27;41.60;38.40;27.40
44933;PMS3003;30667;43.614;1.442;2023-02-17T03:49:53;51.00;42.00;27.75
44933;PMS3003;30667;43.614;1.442;2023-02-17T03:52:19;48.25;43.00;28.00
44933;PMS3003;30667;43.614;1.442;2023-02-17T03:54:44;49.75;43.00;28.00
44933;PMS3003;30667;43.614;1.442;2023-02-17T03:57:09;44.50;37.75;27.00
44933;PMS3003;30667;43.614;1.442;2023-02-17T03:59:35;48.00;43.75;28.00
44933;PMS3003;30667;43.614;1.442;2023-02-17T04:02:01;45.75;39.50;26.75
44933;PMS3003;30667;43.614;1.442;2023-02-17T04:04:26;40.25;38.75;25.50
44933;PMS3003;30667;43.614;1.442;2023-02-17T04:06:52;44.75;40.50;26.25
44933;PMS3003;30667;43.614;1.442;2023-02-17T04:09:17;44.75;41.25;26.50
44933;PMS3003;30667;43.614;1.442;2023-02-17T04:11:42;43.50;37.25;26.00
44933;PMS3003;30667;43.614;1.442;2023-02-17T04:14:08;43.00;38.00;25.50
44933;PMS3003;30667;43.614;1.442;2023-02-17T04:16:33;46.50;39.75;26.75
44933;PMS3003;30667;43.614;1.442;2023-02-17T04:18:59;47.00;41.00;25.25
44933;PMS3003;30667;43.614;1.442;2023-02-17T04:21:24;49.25;44.00;26.75
44933;PMS3003;30667;43.614;1.442;2023-02-17T04:23:50;45.50;40.00;26.50
44933;PMS3003;30667;43.614;1.442;2023-02-17T04:26:15;44.25;42.00;28.25
44933;PMS3003;30667;43.614;1.442;2023-02-17T04:28:41;43.25;40.50;26.25
44933;PMS3003;30667;43.614;1.442;2023-02-17T04:31:07;41.00;38.75;26.25
44933;PMS3003;30667;43.614;1.442;2023-02-17T04:33:33;43.80;38.60;25.80
44933;PMS3003;30667;43.614;1.442;2023-02-17T04:35:59;46.00;41.40;26.60
44933;PMS3003;30667;43.614;1.442;2023-02-17T04:38:28;39.25;38.00;26.00
44933;PMS3003;30667;43.614;1.442;2023-02-17T04:40:55;42.20;36.80;25.80
44933;PMS3003;30667;43.614;1.442;2023-02-17T04:43:22;45.60;42.00;26.80
44933;PMS3003;30667;43.614;1.442;2023-02-17T04:45:48;42.80;38.60;25.80
44933;PMS3003;30667;43.614;1.442;2023-02-17T04:48:14;43.80;38.80;26.40
44933;PMS3003;30667;43.614;1.442;2023-02-17T04:50:39;45.00;38.50;25.25
44933;PMS3003;30667;43.614;1.442;2023-02-17T04:53:05;43.00;39.50;27.50
44933;PMS3003;30667;43.614;1.442;2023-02-17T04:55:31;43.50;41.00;26.25
44933;PMS3003;30667;43.614;1.442;2023-02-17T04:57:57;46.40;41.80;26.80
44933;PMS3003;30667;43.614;1.442;2023-02-17T05:00:22;44.50;41.25;26.75
44933;PMS3003;30667;43.614;1.442;2023-02-17T05:02:48;42.50;38.75;24.25
44933;PMS3003;30667;43.614;1.442;2023-02-17T05:05:13;46.25;41.75;25.25
44933;PMS3003;30667;43.614;1.442;2023-02-17T05:07:40;40.50;37.75;27.00
44933;PMS3003;30667;43.614;1.442;2023-02-17T05:10:06;44.00;39.60;25.80
44933;PMS3003;30667;43.614;1.442;2023-02-17T05:12:33;45.80;40.80;27.00
44933;PMS3003;30667;43.614;1.442;2023-02-17T05:14:59;47.60;42.40;26.40
44933;PMS3003;30667;43.614;1.442;2023-02-17T05:17:25;45.25;42.00;26.00
44933;PMS3003;30667;43.614;1.442;2023-02-17T05:19:50;43.25;40.50;27.00
44933;PMS3003;30667;43.614;1.442;2023-02-17T05:22:15;44.50;39.00;26.25
44933;PMS3003;30667;43.614;1.442;2023-02-17T05:24:41;46.75;41.75;27.25
44933;PMS3003;30667;43.614;1.442;2023-02-17T05:27:06;47.75;42.25;27.00
44933;PMS3003;30667;43.614;1.442;2023-02-17T05:29:32;44.25;41.25;27.00
44933;PMS3003;30667;43.614;1.442;2023-02-17T05:31:57;46.75;40.50;26.00
44933;PMS3003;30667;43.614;1.442;2023-02-17T05:34:23;47.50;43.50;28.00
44933;PMS3003;30667;43.614;1.442;2023-02-17T05:36:48;45.75;42.50;27.00
44933;PMS3003;30667;43.614;1.442;2023-02-17T05:39:14;45.25;43.00;27.00
44933;PMS3003;30667;43.614;1.442;2023-02-17T05:41:39;44.50;38.75;27.00
44933;PMS3003;30667;43.614;1.442;2023-02-17T05:44:04;45.50;42.25;26.00
44933;PMS3003;30667;43.614;1.442;2023-02-17T05:46:30;44.25;40.75;26.75
44933;PMS3003;30667;43.614;1.442;2023-02-17T05:48:55;42.50;37.75;26.00
44933;PMS3003;30667;43.614;1.442;2023-02-17T05:51:20;41.25;37.00;24.75
44933;PMS3003;30667;43.614;1.442;2023-02-17T05:53:46;40.25;37.00;24.00
44933;PMS3003;30667;43.614;1.442;2023-02-17T05:56:11;45.00;41.25;26.00
44933;PMS3003;30667;43.614;1.442;2023-02-17T05:58:37;43.50;38.50;26.25
44933;PMS3003;30667;43.614;1.442;2023-02-17T06:01:06;41.25;37.50;25.75
44933;PMS3003;30667;43.614;1.442;2023-02-17T06:03:33;45.60;41.20;26.80
44933;PMS3003;30667;43.614;1.442;2023-02-17T06:05:58;42.25;33.50;23.00
44933;PMS3003;30667;43.614;1.442;2023-02-17T06:08:24;45.75;39.50;26.75
44933;PMS3003;30667;43.614;1.442;2023-02-17T06:10:51;43.50;39.25;25.25
44933;PMS3003;30667;43.614;1.442;2023-02-17T06:13:17;44.60;39.00;26.00
44933;PMS3003;30667;43.614;1.442;2023-02-17T06:15:42;43.75;39.25;26.00
44933;PMS3003;30667;43.614;1.442;2023-02-17T06:18:08;45.00;41.50;26.00
44933;PMS3003;30667;43.614;1.442;2023-02-17T06:20:33;45.50;35.50;23.50
44933;PMS3003;30667;43.614;1.442;2023-02-17T06:22:58;49.50;40.25;25.25
44933;PMS3003;30667;43.614;1.442;2023-02-17T06:25:24;41.25;37.25;25.75
44933;PMS3003;30667;43.614;1.442;2023-02-17T06:27:49;44.25;40.25;29.00
44933;PMS3003;30667;43.614;1.442;2023-02-17T06:30:15;43.50;41.00;27.75
44933;PMS3003;30667;43.614;1.442;2023-02-17T06:32:41;43.60;41.40;27.80
44933;PMS3003;30667;43.614;1.442;2023-02-17T06:35:07;48.25;41.75;27.25
44933;PMS3003;30667;43.614;1.442;2023-02-17T06:37:32;44.00;38.25;26.75
44933;PMS3003;30667;43.614;1.442;2023-02-17T06:39:58;42.25;38.00;26.25
44933;PMS3003;30667;43.614;1.442;2023-02-17T06:42:23;44.25;40.00;27.00
44933;PMS3003;30667;43.614;1.442;2023-02-17T06:44:49;49.25;40.50;26.75
44933;PMS3003;30667;43.614;1.442;2023-02-17T06:47:14;51.00;43.50;27.50
44933;PMS3003;30667;43.614;1.442;2023-02-17T06:49:40;49.75;39.25;27.50
44933;PMS3003;30667;43.614;1.442;2023-02-17T06:52:05;47.00;42.25;26.00
44933;PMS3003;30667;43.614;1.442;2023-02-17T06:54:31;44.75;38.75;27.25
44933;PMS3003;30667;43.614;1.442;2023-02-17T06:56:56;42.00;40.00;26.50
44933;PMS3003;30667;43.614;1.442;2023-02-17T06:59:22;44.50;42.50;28.75
44933;PMS3003;30667;43.614;1.442;2023-02-17T07:01:47;50.25;40.00;26.75
44933;PMS3003;30667;43.614;1.442;2023-02-17T07:04:14;47.80;40.80;27.00
44933;PMS3003;30667;43.614;1.442;2023-02-17T07:06:40;44.00;39.00;26.00
44933;PMS3003;30667;43.614;1.442;2023-02-17T07:09:05;45.25;40.50;26.00
44933;PMS3003;30667;43.614;1.442;2023-02-17T07:11:31;41.75;38.00;25.00
44933;PMS3003;30667;43.614;1.442;2023-02-17T07:13:57;42.75;41.25;28.00
44933;PMS3003;30667;43.614;1.442;2023-02-17T07:16:22;40.20;38.80;26.40
44933;PMS3003;30667;43.614;1.442;2023-02-17T07:18:48;41.40;40.40;28.20
44933;PMS3003;30667;43.614;1.442;2023-02-17T07:21:14;44.75;41.75;29.00
44933;PMS3003;30667;43.614;1.442;2023-02-17T07:23:39;46.00;42.75;26.50
44933;PMS3003;30667;43.614;1.442;2023-02-17T07:26:06;48.50;41.25;26.50
44933;PMS3003;30667;43.614;1.442;2023-02-17T07:28:33;48.00;42.20;26.60
44933;PMS3003;30667;43.614;1.442;2023-02-17T07:33:35;51.40;41.00;26.20
44933;PMS3003;30667;43.614;1.442;2023-02-17T07:36:07;42.50;39.25;23.50
44933;PMS3003;30667;43.614;1.442;2023-02-17T07:38:34;46.20;40.40;26.00
44933;PMS3003;30667;43.614;1.442;2023-02-17T07:41:06;49.80;42.00;26.40
44933;PMS3003;30667;43.614;1.442;2023-02-17T07:43:32;48.00;43.20;27.60
44933;PMS3003;30667;43.614;1.442;2023-02-17T07:45:58;44.75;40.50;27.00
44933;PMS3003;30667;43.614;1.442;2023-02-17T07:48:23;44.50;41.00;27.00
44933;PMS3003;30667;43.614;1.442;2023-02-17T07:50:49;48.25;37.25;26.00
44933;PMS3003;30667;43.614;1.442;2023-02-17T07:53:14;43.75;40.75;26.50
44933;PMS3003;30667;43.614;1.442;2023-02-17T07:55:39;46.25;42.00;25.25
44933;PMS3003;30667;43.614;1.442;2023-02-17T07:58:05;46.00;41.25;26.00
44933;PMS3003;30667;43.614;1.442;2023-02-17T08:00:30;41.25;39.00;26.75
44933;PMS3003;30667;43.614;1.442;2023-02-17T08:02:56;43.50;40.50;27.25
44933;PMS3003;30667;43.614;1.442;2023-02-17T08:05:21;47.00;40.25;27.00
44933;PMS3003;30667;43.614;1.442;2023-02-17T08:07:47;54.00;45.33;29.33
44933;PMS3003;30667;43.614;1.442;2023-02-17T08:10:12;52.25;44.00;28.25
44933;PMS3003;30667;43.614;1.442;2023-02-17T08:12:56;49.20;44.00;29.00
44933;PMS3003;30667;43.614;1.442;2023-02-17T08:15:40;48.00;43.80;28.80
44933;PMS3003;30667;43.614;1.442;2023-02-17T08:18:05;45.25;41.25;26.50
44933;PMS3003;30667;43.614;1.442;2023-02-17T08:20:31;45.75;42.75;28.00
44933;PMS3003;30667;43.614;1.442;2023-02-17T08:22:56;52.00;43.75;28.00
44933;PMS3003;30667;43.614;1.442;2023-02-17T08:25:22;50.75;45.75;27.50
44933;PMS3003;30667;43.614;1.442;2023-02-17T08:27:47;49.50;44.25;29.50
44933;PMS3003;30667;43.614;1.442;2023-02-17T08:30:13;49.25;44.75;28.00
44933;PMS3003;30667;43.614;1.442;2023-02-17T08:32:38;55.00;46.33;31.00
44933;PMS3003;30667;43.614;1.442;2023-02-17T08:35:04;46.50;43.50;30.00
44933;PMS3003;30667;43.614;1.442;2023-02-17T08:37:30;46.60;43.60;28.00
44933;PMS3003;30667;43.614;1.442;2023-02-17T08:39:57;49.75;42.75;28.00
44933;PMS3003;30667;43.614;1.442;2023-02-17T08:42:25;52.40;43.80;28.00
44933;PMS3003;30667;43.614;1.442;2023-02-17T08:44:51;51.25;44.75;28.00
44933;PMS3003;30667;43.614;1.442;2023-02-17T08:47:17;53.67;45.00;28.00
44933;PMS3003;30667;43.614;1.442;2023-02-17T08:49:43;51.00;45.00;28.00
44933;PMS3003;30667;43.614;1.442;2023-02-17T08:52:08;44.50;42.50;28.75
44933;PMS3003;30667;43.614;1.442;2023-02-17T08:54:34;48.25;42.00;28.00
44933;PMS3003;30667;43.614;1.442;2023-02-17T08:56:59;48.25;42.50;27.75
44933;PMS3003;30667;43.614;1.442;2023-02-17T08:59:25;48.25;42.00;28.00
44933;PMS3003;30667;43.614;1.442;2023-02-17T09:01:50;55.00;46.67;29.33
44933;PMS3003;30667;43.614;1.442;2023-02-17T09:04:16;47.00;42.00;28.00
44933;PMS3003;30667;43.614;1.442;2023-02-17T09:06:42;46.25;43.50;28.00
44933;PMS3003;30667;43.614;1.442;2023-02-17T09:09:13;57.25;44.75;29.00
44933;PMS3003;30667;43.614;1.442;2023-02-17T09:11:41;51.40;43.20;29.60
44933;PMS3003;30667;43.614;1.442;2023-02-17T09:14:07;48.00;45.00;29.67
44933;PMS3003;30667;43.614;1.442;2023-02-17T09:16:32;48.00;42.67;29.33
44933;PMS3003;30667;43.614;1.442;2023-02-17T09:18:58;49.67;44.67;30.33
44933;PMS3003;30667;43.614;1.442;2023-02-17T09:21:23;50.67;45.00;31.00
44933;PMS3003;30667;43.614;1.442;2023-02-17T09:23:49;49.67;42.67;28.00
44933;PMS3003;30667;43.614;1.442;2023-02-17T09:26:16;47.25;43.75;27.75
44933;PMS3003;30667;43.614;1.442;2023-02-17T09:28:41;53.50;44.50;28.50
44933;PMS3003;30667;43.614;1.442;2023-02-17T09:31:08;50.75;43.50;29.75
44933;PMS3003;30667;43.614;1.442;2023-02-17T09:33:34;47.80;41.80;27.80
44933;PMS3003;30667;43.614;1.442;2023-02-17T09:35:59;45.75;42.00;28.00
44933;PMS3003;30667;43.614;1.442;2023-02-17T09:38:25;52.00;43.00;29.00
44933;PMS3003;30667;43.614;1.442;2023-02-17T09:40:50;42.00;40.50;28.00
44933;PMS3003;30667;43.614;1.442;2023-02-17T09:43:16;49.00;45.00;28.00
44933;PMS3003;30667;43.614;1.442;2023-02-17T09:45:48;57.75;45.50;29.50
44933;PMS3003;30667;43.614;1.442;2023-02-17T09:48:17;50.00;43.00;30.00
44933;PMS3003;30667;43.614;1.442;2023-02-17T09:56:28;55.75;48.00;31.00
44933;PMS3003;30667;43.614;1.442;2023-02-17T09:58:58;51.00;45.25;30.50
44933;PMS3003;30667;43.614;1.442;2023-02-17T10:01:46;52.25;44.50;30.00
44933;PMS3003;30667;43.614;1.442;2023-02-17T10:04:21;54.75;45.25;31.75
44933;PMS3003;30667;43.614;1.442;2023-02-17T10:07:02;53.00;44.75;29.25
44933;PMS3003;30667;43.614;1.442;2023-02-17T10:09:36;54.25;45.00;30.00
44933;PMS3003;30667;43.614;1.442;2023-02-17T10:12:19;56.50;45.75;30.25
44933;PMS3003;30667;43.614;1.442;2023-02-17T10:15:51;52.50;45.00;30.00
44933;PMS3003;30667;43.614;1.442;2023-02-17T10:18:08;59.75;47.50;31.25
44933;PMS3003;30667;43.614;1.442;2023-02-17T10:23:04;57.50;43.75;30.00
44933;PMS3003;30667;43.614;1.442;2023-02-17T10:28:09;49.50;44.75;29.50
44933;PMS3003;30667;43.614;1.442;2023-02-17T10:33:46;56.25;47.50;31.25
44933;PMS3003;30667;43.614;1.442;2023-02-17T10:39:07;51.50;44.75;31.00
44933;PMS3003;30667;43.614;1.442;2023-02-17T10:41:40;54.50;45.25;30.50
44933;PMS3003;30667;43.614;1.442;2023-02-17T10:44:11;55.00;46.50;30.25
44933;PMS3003;30667;43.614;1.442;2023-02-17T10:46:42;55.50;46.25;31.50
44933;PMS3003;30667;43.614;1.442;2023-02-17T10:49:21;60.50;46.75;31.50
44933;PMS3003;30667;43.614;1.442;2023-02-17T10:51:53;59.25;46.75;30.75
44933;PMS3003;30667;43.614;1.442;2023-02-17T10:54:34;61.25;50.75;32.50
44933;PMS3003;30667;43.614;1.442;2023-02-17T10:57:06;59.50;47.50;32.00
44933;PMS3003;30667;43.614;1.442;2023-02-17T10:59:39;58.25;48.50;32.00
44933;PMS3003;30667;43.614;1.442;2023-02-17T11:05:19;55.50;47.00;32.00
44933;PMS3003;30667;43.614;1.442;2023-02-17T11:07:57;59.50;48.50;32.75
44933;PMS3003;30667;43.614;1.442;2023-02-17T11:12:56;54.50;47.00;32.25
44933;PMS3003;30667;43.614;1.442;2023-02-17T11:15:28;61.00;50.00;34.00
44933;PMS3003;30667;43.614;1.442;2023-02-17T11:17:58;62.25;47.50;31.50
44933;PMS3003;30667;43.614;1.442;2023-02-17T11:20:29;60.00;45.75;30.00
44933;PMS3003;30667;43.614;1.442;2023-02-17T11:23:02;58.00;46.25;31.25
44933;PMS3003;30667;43.614;1.442;2023-02-17T11:25:30;60.25;45.75;30.25
44933;PMS3003;30667;43.614;1.442;2023-02-17T11:27:59;49.50;42.00;28.75
44933;PMS3003;30667;43.614;1.442;2023-02-17T11:30:27;55.50;44.75;30.00
44933;PMS3003;30667;43.614;1.442;2023-02-17T11:32:54;54.50;43.25;28.50
44933;PMS3003;30667;43.614;1.442;2023-02-17T11:35:27;58.33;45.33;29.00
44933;PMS3003;30667;43.614;1.442;2023-02-17T11:38:11;49.75;42.50;27.75
44933;PMS3003;30667;43.614;1.442;2023-02-17T11:40:39;55.00;44.75;28.75
44933;PMS3003;30667;43.614;1.442;2023-02-17T11:43:05;48.67;40.67;26.00
44933;PMS3003;30667;43.614;1.442;2023-02-17T11:45:33;49.00;42.00;27.00
44933;PMS3003;30667;43.614;1.442;2023-02-17T11:48:21;51.50;41.75;26.50
44933;PMS3003;30667;43.614;1.442;2023-02-17T11:51:02;52.25;41.25;27.00
44933;PMS3003;30667;43.614;1.442;2023-02-17T11:53:55;42.60;39.80;25.00
44933;PMS3003;30667;43.614;1.442;2023-02-17T11:56:22;43.60;39.60;25.80
44933;PMS3003;30667;43.614;1.442;2023-02-17T12:04:23;46.75;41.50;26.00
44933;PMS3003;30667;43.614;1.442;2023-02-17T12:21:16;42.40;37.60;23.00
44933;PMS3003;30667;43.614;1.442;2023-02-17T12:34:24;39.80;37.20;23.60
44933;PMS3003;30667;43.614;1.442;2023-02-17T12:37:18;40.20;35.00;22.20
44933;PMS3003;30667;43.614;1.442;2023-02-17T12:39:48;39.20;34.60;22.40
44933;PMS3003;30667;43.614;1.442;2023-02-17T12:42:19;39.20;36.80;24.00
44933;PMS3003;30667;43.614;1.442;2023-02-17T12:45:17;34.40;30.20;20.00
44933;PMS3003;30667;43.614;1.442;2023-02-17T12:47:51;34.00;30.20;19.20
44933;PMS3003;30667;43.614;1.442;2023-02-17T12:50:32;29.80;27.60;16.00
44933;PMS3003;30667;43.614;1.442;2023-02-17T12:53:04;31.80;29.00;19.80
44933;PMS3003;30667;43.614;1.442;2023-02-17T12:55:36;27.80;26.40;19.00
44933;PMS3003;30667;43.614;1.442;2023-02-17T12:58:15;35.20;28.60;19.00
44933;PMS3003;30667;43.614;1.442;2023-02-17T13:01:04;30.00;26.20;16.80
44933;PMS3003;30667;43.614;1.442;2023-02-17T13:03:35;32.00;27.40;18.20
44933;PMS3003;30667;43.614;1.442;2023-02-17T13:06:02;31.40;26.60;17.00
44933;PMS3003;30667;43.614;1.442;2023-02-17T13:08:42;28.60;27.00;17.80
44933;PMS3003;30667;43.614;1.442;2023-02-17T13:11:24;33.00;26.80;17.80
44933;PMS3003;30667;43.614;1.442;2023-02-17T13:14:08;37.80;28.80;17.80
44933;PMS3003;30667;43.614;1.442;2023-02-17T13:16:42;34.60;29.60;18.80
44933;PMS3003;30667;43.614;1.442;2023-02-17T13:19:11;29.60;27.40;17.20
44933;PMS3003;30667;43.614;1.442;2023-02-17T13:21:47;30.00;25.00;16.20
44933;PMS3003;30667;43.614;1.442;2023-02-17T13:24:32;29.20;25.00;16.00
44933;PMS3003;30667;43.614;1.442;2023-02-17T13:27:12;29.80;25.40;18.00
44933;PMS3003;30667;43.614;1.442;2023-02-17T13:30:00;26.00;25.00;16.20
44933;PMS3003;30667;43.614;1.442;2023-02-17T13:32:31;30.40;24.60;15.20
44933;PMS3003;30667;43.614;1.442;2023-02-17T13:35:43;27.40;26.60;16.80
44933;PMS3003;30667;43.614;1.442;2023-02-17T13:37:46;28.40;24.20;15.20
44933;PMS3003;30667;43.614;1.442;2023-02-17T13:42:41;29.20;26.20;17.00
44933;PMS3003;30667;43.614;1.442;2023-02-17T13:47:50;25.20;24.60;16.00
44933;PMS3003;30667;43.614;1.442;2023-02-17T13:52:54;28.20;25.40;16.20
44933;PMS3003;30667;43.614;1.442;2023-02-17T13:55:20;26.75;22.00;15.50
44933;PMS3003;30667;43.614;1.442;2023-02-17T13:57:50;27.20;24.40;15.40
44933;PMS3003;30667;43.614;1.442;2023-02-17T14:00:22;26.80;24.60;15.40
44933;PMS3003;30667;43.614;1.442;2023-02-17T14:05:58;27.50;23.50;16.25
44933;PMS3003;30667;43.614;1.442;2023-02-17T14:08:12;30.40;25.60;15.20
44933;PMS3003;30667;43.614;1.442;2023-02-17T14:10:42;24.20;20.80;14.40
44933;PMS3003;30667;43.614;1.442;2023-02-17T14:13:11;25.60;25.00;16.20
44933;PMS3003;30667;43.614;1.442;2023-02-17T14:15:48;25.40;24.20;16.00
44933;PMS3003;30667;43.614;1.442;2023-02-17T14:18:23;23.60;21.80;14.60
44933;PMS3003;30667;43.614;1.442;2023-02-17T14:23:57;22.80;22.80;16.00
44933;PMS3003;30667;43.614;1.442;2023-02-17T14:29:00;23.20;21.20;14.80
44933;PMS3003;30667;43.614;1.442;2023-02-17T14:31:29;23.20;20.20;12.80
44933;PMS3003;30667;43.614;1.442;2023-02-17T14:34:01;19.60;18.20;12.20
44933;PMS3003;30667;43.614;1.442;2023-02-17T14:36:29;23.20;21.00;13.00
44933;PMS3003;30667;43.614;1.442;2023-02-17T14:39:01;24.80;21.60;13.80
44933;PMS3003;30667;43.614;1.442;2023-02-17T14:41:32;21.60;19.80;13.00
44933;PMS3003;30667;43.614;1.442;2023-02-17T14:43:58;20.40;18.40;12.00
44933;PMS3003;30667;43.614;1.442;2023-02-17T14:46:24;22.40;21.20;14.80
44933;PMS3003;30667;43.614;1.442;2023-02-17T14:48:50;25.25;21.75;14.50
44933;PMS3003;30667;43.614;1.442;2023-02-17T14:51:17;22.00;20.75;14.25
44933;PMS3003;30667;43.614;1.442;2023-02-17T14:53:45;20.40;19.80;13.60
44933;PMS3003;30667;43.614;1.442;2023-02-17T14:56:16;23.00;21.80;14.00
44933;PMS3003;30667;43.614;1.442;2023-02-17T14:59:00;24.20;22.00;13.80
44933;PMS3003;30667;43.614;1.442;2023-02-17T15:01:26;21.75;20.75;14.00
44933;PMS3003;30667;43.614;1.442;2023-02-17T15:03:52;23.25;20.00;11.75
44933;PMS3003;30667;43.614;1.442;2023-02-17T15:06:19;19.60;18.00;11.00
44933;PMS3003;30667;43.614;1.442;2023-02-17T15:08:48;17.80;16.00;10.20
44933;PMS3003;30667;43.614;1.442;2023-02-17T15:11:18;17.50;16.25;10.50
44933;PMS3003;30667;43.614;1.442;2023-02-17T15:13:49;20.60;17.60;11.20
44933;PMS3003;30667;43.614;1.442;2023-02-17T15:16:15;19.50;18.50;11.00
44933;PMS3003;30667;43.614;1.442;2023-02-17T15:18:40;18.00;17.50;12.00
44933;PMS3003;30667;43.614;1.442;2023-02-17T15:21:20;21.80;19.80;11.00
44933;PMS3003;30667;43.614;1.442;2023-02-17T15:23:47;17.60;16.80;10.60
44933;PMS3003;30667;43.614;1.442;2023-02-17T15:26:13;22.25;17.75;11.00